sensor_id;sensor_type;location;lat;lon;timestamp;pressure;altitude;pressure_sealevel;temperature;humidity
16544;BME280;8384;47.996;7.786;2023-09-12T00:01:56;98369.09;;;20.95;64.83
16544;BME280;8384;47.996;7.786;2023-09-12T00:04:21;98373.94;;;21.20;63.44
16544;BME280;8384;47.996;7.786;2023-09-12T00:06:47;98369.94;;;21.30;62.67
16544;BME280;8384;47.996;7.786;2023-09-12T00:09:12;98369.31;;;21.24;62.62
16544;BME280;8384;47.996;7.786;2023-09-12T00:11:37;98360.09;;;21.32;62.24
16544;BME280;8384;47.996;7.786;2023-09-12T00:14:03;98356.25;;;21.24;62.38
16544;BME280;8384;47.996;7.786;2023-09-12T00:16:28;98365.59;;;21.20;63.12
16544;BME280;8384;47.996;7.786;2023-09-12T00:18:53;98360.78;;;21.08;62.59
16544;BME280;8384;47.996;7.786;2023-09-12T00:21:18;98356.88;;;21.09;62.61
16544;BME280;8384;47.996;7.786;2023-09-12T00:23:44;98363.38;;;21.13;62.77
16544;BME280;8384;47.996;7.786;2023-09-12T00:26:09;98358.25;;;21.03;63.32
16544;BME280;8384;47.996;7.786;2023-09-12T00:28:34;98351.75;;;20.98;62.65
16544;BME280;8384;47.996;7.786;2023-09-12T00:30:59;98357.50;;;20.93;63.22
16544;BME280;8384;47.996;7.786;2023-09-12T00:33:25;98372.47;;;21.01;63.28
16544;BME280;8384;47.996;7.786;2023-09-12T00:35:50;98347.66;;;20.96;62.64
16544;BME280;8384;47.996;7.786;2023-09-12T00:41:37;98344.22;;;20.99;62.38
16544;BME280;8384;47.996;7.786;2023-09-12T00:44:02;98359.72;;;21.00;62.67
16544;BME280;8384;47.996;7.786;2023-09-12T00:46:28;98356.63;;;21.02;62.43
16544;BME280;8384;47.996;7.786;2023-09-12T00:48:55;98372.25;;;21.06;62.06
16544;BME280;8384;47.996;7.786;2023-09-12T00:51:23;98374.69;;;21.08;62.30
16544;BME280;8384;47.996;7.786;2023-09-12T00:53:50;98372.81;;;21.00;62.98
16544;BME280;8384;47.996;7.786;2023-09-12T00:56:16;98371.66;;;20.79;64.20
16544;BME280;8384;47.996;7.786;2023-09-12T00:58:41;98369.50;;;20.85;64.26
16544;BME280;8384;47.996;7.786;2023-09-12T01:01:06;98353.38;;;20.78;63.96
16544;BME280;8384;47.996;7.786;2023-09-12T01:03:32;98340.13;;;20.75;64.46
16544;BME280;8384;47.996;7.786;2023-09-12T01:05:58;98348.88;;;20.65;67.29
16544;BME280;8384;47.996;7.786;2023-09-12T01:08:24;98371.19;;;20.77;68.26
16544;BME280;8384;47.996;7.786;2023-09-12T01:10:52;98360.13;;;20.68;67.15
16544;BME280;8384;47.996;7.786;2023-09-12T01:13:18;98375.44;;;20.75;66.83
16544;BME280;8384;47.996;7.786;2023-09-12T01:15:44;98369.19;;;20.57;68.20
16544;BME280;8384;47.996;7.786;2023-09-12T01:18:09;98372.03;;;20.48;68.97
16544;BME280;8384;47.996;7.786;2023-09-12T01:20:36;98356.91;;;20.36;68.95
16544;BME280;8384;47.996;7.786;2023-09-12T01:23:19;98372.41;;;20.37;69.36
16544;BME280;8384;47.996;7.786;2023-09-12T01:26:04;98380.56;;;20.13;72.11
16544;BME280;8384;47.996;7.786;2023-09-12T01:28:34;98362.84;;;19.96;71.03
16544;BME280;8384;47.996;7.786;2023-09-12T01:31:01;98376.00;;;20.08;70.97
16544;BME280;8384;47.996;7.786;2023-09-12T01:33:28;98383.09;;;19.88;70.83
16544;BME280;8384;47.996;7.786;2023-09-12T01:35:53;98391.06;;;19.98;70.84
16544;BME280;8384;47.996;7.786;2023-09-12T01:38:19;98378.03;;;19.90;71.13
16544;BME280;8384;47.996;7.786;2023-09-12T01:40:53;98384.59;;;19.68;73.86
16544;BME280;8384;47.996;7.786;2023-09-12T01:43:22;98383.13;;;19.79;72.87
16544;BME280;8384;47.996;7.786;2023-09-12T01:45:52;98368.47;;;19.70;72.63
16544;BME280;8384;47.996;7.786;2023-09-12T01:48:20;98380.69;;;19.69;73.89
16544;BME280;8384;47.996;7.786;2023-09-12T01:50:46;98368.47;;;19.70;73.88
16544;BME280;8384;47.996;7.786;2023-09-12T01:53:12;98362.59;;;19.71;73.50
16544;BME280;8384;47.996;7.786;2023-09-12T01:55:39;98366.97;;;19.81;72.89
16544;BME280;8384;47.996;7.786;2023-09-12T01:58:06;98379.47;;;19.87;72.58
16544;BME280;8384;47.996;7.786;2023-09-12T02:00:33;98368.47;;;19.70;73.90
16544;BME280;8384;47.996;7.786;2023-09-12T02:02:58;98384.22;;;19.87;73.51
16544;BME280;8384;47.996;7.786;2023-09-12T02:05:23;98374.44;;;19.81;73.92
16544;BME280;8384;47.996;7.786;2023-09-12T02:07:49;98371.84;;;19.75;74.32
16544;BME280;8384;47.996;7.786;2023-09-12T02:10:14;98385.53;;;19.81;74.40
16544;BME280;8384;47.996;7.786;2023-09-12T02:12:40;98378.19;;;19.85;73.84
16544;BME280;8384;47.996;7.786;2023-09-12T02:15:06;98371.03;;;19.84;73.38
16544;BME280;8384;47.996;7.786;2023-09-12T02:17:32;98375.78;;;19.74;73.66
16544;BME280;8384;47.996;7.786;2023-09-12T02:19:57;98384.84;;;19.45;74.71
16544;BME280;8384;47.996;7.786;2023-09-12T02:22:22;98384.72;;;19.15;77.80
16544;BME280;8384;47.996;7.786;2023-09-12T02:24:47;98376.25;;;19.20;78.03
16544;BME280;8384;47.996;7.786;2023-09-12T02:27:13;98356.84;;;19.20;77.79
16544;BME280;8384;47.996;7.786;2023-09-12T02:29:39;98378.00;;;19.33;78.03
16544;BME280;8384;47.996;7.786;2023-09-12T02:32:05;98386.53;;;19.20;79.12
16544;BME280;8384;47.996;7.786;2023-09-12T02:34:30;98374.44;;;18.71;80.45
16544;BME280;8384;47.996;7.786;2023-09-12T02:36:55;98386.31;;;18.63;81.63
16544;BME280;8384;47.996;7.786;2023-09-12T02:39:21;98379.13;;;18.62;81.79
16544;BME280;8384;47.996;7.786;2023-09-12T02:41:46;98372.13;;;18.56;81.92
16544;BME280;8384;47.996;7.786;2023-09-12T02:44:11;98386.38;;;18.98;79.89
16544;BME280;8384;47.996;7.786;2023-09-12T02:46:37;98386.03;;;19.00;80.12
16544;BME280;8384;47.996;7.786;2023-09-12T02:49:03;98378.06;;;18.98;80.06
16544;BME280;8384;47.996;7.786;2023-09-12T02:51:28;98383.25;;;19.00;80.30
16544;BME280;8384;47.996;7.786;2023-09-12T02:53:54;98391.41;;;18.96;80.38
16544;BME280;8384;47.996;7.786;2023-09-12T02:56:19;98367.13;;;18.67;81.40
16544;BME280;8384;47.996;7.786;2023-09-12T02:58:48;98389.22;;;18.49;83.42
16544;BME280;8384;47.996;7.786;2023-09-12T03:01:15;98378.91;;;18.32;84.92
16544;BME280;8384;47.996;7.786;2023-09-12T03:03:41;98385.75;;;18.26;85.35
16544;BME280;8384;47.996;7.786;2023-09-12T03:06:06;98379.75;;;18.33;84.89
16544;BME280;8384;47.996;7.786;2023-09-12T03:08:31;98361.97;;;18.16;84.98
16544;BME280;8384;47.996;7.786;2023-09-12T03:10:57;98343.06;;;18.09;84.50
16544;BME280;8384;47.996;7.786;2023-09-12T03:13:25;98375.69;;;18.39;83.56
16544;BME280;8384;47.996;7.786;2023-09-12T03:15:51;98358.38;;;18.16;85.15
16544;BME280;8384;47.996;7.786;2023-09-12T03:18:17;98374.03;;;18.29;84.48
16544;BME280;8384;47.996;7.786;2023-09-12T03:20:42;98360.38;;;18.24;84.12
16544;BME280;8384;47.996;7.786;2023-09-12T03:23:07;98370.16;;;18.39;83.94
16544;BME280;8384;47.996;7.786;2023-09-12T03:25:39;98369.34;;;18.38;83.57
16544;BME280;8384;47.996;7.786;2023-09-12T03:28:05;98371.97;;;18.52;83.06
16544;BME280;8384;47.996;7.786;2023-09-12T03:30:33;98357.63;;;18.41;83.00
16544;BME280;8384;47.996;7.786;2023-09-12T03:32:59;98354.53;;;18.43;82.70
16544;BME280;8384;47.996;7.786;2023-09-12T03:35:24;98365.59;;;18.43;83.20
16544;BME280;8384;47.996;7.786;2023-09-12T03:37:49;98321.66;;;18.24;83.59
16544;BME280;8384;47.996;7.786;2023-09-12T03:40:14;98354.91;;;18.77;80.70
16544;BME280;8384;47.996;7.786;2023-09-12T03:42:40;98344.97;;;18.84;79.57
16544;BME280;8384;47.996;7.786;2023-09-12T03:45:05;98323.31;;;18.78;79.48
16544;BME280;8384;47.996;7.786;2023-09-12T03:47:31;98336.03;;;18.96;78.85
16544;BME280;8384;47.996;7.786;2023-09-12T03:49:56;98324.25;;;18.82;78.68
16544;BME280;8384;47.996;7.786;2023-09-12T03:52:22;98320.19;;;18.79;78.73
16544;BME280;8384;47.996;7.786;2023-09-12T03:54:47;98349.69;;;18.93;78.89
16544;BME280;8384;47.996;7.786;2023-09-12T03:57:12;98340.38;;;18.53;81.19
16544;BME280;8384;47.996;7.786;2023-09-12T03:59:38;98360.44;;;18.94;79.93
16544;BME280;8384;47.996;7.786;2023-09-12T04:02:03;98342.06;;;18.98;78.95
16544;BME280;8384;47.996;7.786;2023-09-12T04:04:29;98346.09;;;18.74;81.15
16544;BME280;8384;47.996;7.786;2023-09-12T04:06:54;98322.00;;;18.57;81.11
16544;BME280;8384;47.996;7.786;2023-09-12T04:09:20;98350.81;;;18.65;81.42
16544;BME280;8384;47.996;7.786;2023-09-12T04:11:46;98353.44;;;18.53;82.88
16544;BME280;8384;47.996;7.786;2023-09-12T04:14:13;98345.91;;;18.71;81.71
16544;BME280;8384;47.996;7.786;2023-09-12T04:16:39;98348.03;;;18.56;82.65
16544;BME280;8384;47.996;7.786;2023-09-12T04:19:04;98340.38;;;18.27;83.63
16544;BME280;8384;47.996;7.786;2023-09-12T04:21:30;98343.44;;;18.25;84.68
16544;BME280;8384;47.996;7.786;2023-09-12T04:23:55;98356.34;;;18.39;84.73
16544;BME280;8384;47.996;7.786;2023-09-12T04:26:20;98332.75;;;17.92;85.54
16544;BME280;8384;47.996;7.786;2023-09-12T04:28:48;98355.50;;;17.89;86.80
16544;BME280;8384;47.996;7.786;2023-09-12T04:31:14;98360.31;;;17.75;88.21
16544;BME280;8384;47.996;7.786;2023-09-12T04:33:40;98350.38;;;17.65;88.58
16544;BME280;8384;47.996;7.786;2023-09-12T04:36:05;98360.28;;;17.66;89.06
16544;BME280;8384;47.996;7.786;2023-09-12T04:38:30;98359.97;;;17.67;90.34
16544;BME280;8384;47.996;7.786;2023-09-12T04:41:00;98356.19;;;17.32;91.31
16544;BME280;8384;47.996;7.786;2023-09-12T04:43:31;98361.06;;;17.58;91.06
16544;BME280;8384;47.996;7.786;2023-09-12T04:45:56;98356.78;;;17.83;89.55
16544;BME280;8384;47.996;7.786;2023-09-12T04:48:22;98352.28;;;17.96;88.79
16544;BME280;8384;47.996;7.786;2023-09-12T04:50:47;98357.47;;;17.89;88.44
16544;BME280;8384;47.996;7.786;2023-09-12T04:53:13;98357.34;;;17.62;90.62
16544;BME280;8384;47.996;7.786;2023-09-12T04:55:38;98353.19;;;17.82;89.85
16544;BME280;8384;47.996;7.786;2023-09-12T04:58:07;98355.56;;;17.98;88.87
16544;BME280;8384;47.996;7.786;2023-09-12T05:00:33;98353.63;;;17.98;88.23
16544;BME280;8384;47.996;7.786;2023-09-12T05:02:58;98346.94;;;17.99;87.68
16544;BME280;8384;47.996;7.786;2023-09-12T05:05:24;98343.84;;;18.01;87.63
16544;BME280;8384;47.996;7.786;2023-09-12T05:07:50;98350.38;;;18.05;87.46
16544;BME280;8384;47.996;7.786;2023-09-12T05:10:16;98361.66;;;18.18;87.36
16544;BME280;8384;47.996;7.786;2023-09-12T05:12:42;98355.16;;;18.22;87.18
16544;BME280;8384;47.996;7.786;2023-09-12T05:15:07;98341.63;;;18.12;87.02
16544;BME280;8384;47.996;7.786;2023-09-12T05:17:32;98340.72;;;17.94;88.35
16544;BME280;8384;47.996;7.786;2023-09-12T05:19:58;98368.97;;;18.13;88.07
16544;BME280;8384;47.996;7.786;2023-09-12T05:22:23;98350.66;;;17.95;88.83
16544;BME280;8384;47.996;7.786;2023-09-12T05:24:48;98357.22;;;17.99;89.35
16544;BME280;8384;47.996;7.786;2023-09-12T05:27:14;98365.34;;;18.04;89.25
16544;BME280;8384;47.996;7.786;2023-09-12T05:29:40;98369.31;;;18.21;88.18
16544;BME280;8384;47.996;7.786;2023-09-12T05:32:05;98371.25;;;18.29;88.20
16544;BME280;8384;47.996;7.786;2023-09-12T05:34:31;98369.81;;;18.32;87.46
16544;BME280;8384;47.996;7.786;2023-09-12T05:36:57;98359.72;;;18.27;87.57
16544;BME280;8384;47.996;7.786;2023-09-12T05:39:22;98371.09;;;18.25;88.10
16544;BME280;8384;47.996;7.786;2023-09-12T05:41:48;98367.72;;;18.37;87.58
16544;BME280;8384;47.996;7.786;2023-09-12T05:44:13;98361.19;;;18.33;87.10
16544;BME280;8384;47.996;7.786;2023-09-12T05:46:43;98370.81;;;18.44;86.67
16544;BME280;8384;47.996;7.786;2023-09-12T05:49:08;98358.13;;;18.35;86.46
16544;BME280;8384;47.996;7.786;2023-09-12T05:51:34;98371.81;;;18.66;84.42
16544;BME280;8384;47.996;7.786;2023-09-12T05:53:59;98377.56;;;18.96;82.27
16544;BME280;8384;47.996;7.786;2023-09-12T05:56:26;98386.50;;;19.28;79.23
16544;BME280;8384;47.996;7.786;2023-09-12T05:58:51;98380.41;;;19.53;76.30
16544;BME280;8384;47.996;7.786;2023-09-12T06:01:16;98382.34;;;19.61;76.09
16544;BME280;8384;47.996;7.786;2023-09-12T06:03:42;98364.72;;;19.66;75.07
16544;BME280;8384;47.996;7.786;2023-09-12T06:06:07;98367.47;;;19.74;74.13
16544;BME280;8384;47.996;7.786;2023-09-12T06:08:32;98392.00;;;20.02;73.66
16544;BME280;8384;47.996;7.786;2023-09-12T06:10:58;98386.16;;;20.04;73.74
16544;BME280;8384;47.996;7.786;2023-09-12T06:13:23;98389.84;;;20.17;73.33
16544;BME280;8384;47.996;7.786;2023-09-12T06:15:49;98395.00;;;20.27;72.68
16544;BME280;8384;47.996;7.786;2023-09-12T06:18:15;98403.91;;;20.42;72.66
16544;BME280;8384;47.996;7.786;2023-09-12T06:20:40;98410.22;;;20.51;73.29
16544;BME280;8384;47.996;7.786;2023-09-12T06:23:05;98415.38;;;20.61;72.83
16544;BME280;8384;47.996;7.786;2023-09-12T06:25:30;98410.22;;;21.02;72.72
16544;BME280;8384;47.996;7.786;2023-09-12T06:27:56;98417.53;;;21.07;72.30
16544;BME280;8384;47.996;7.786;2023-09-12T06:30:21;98418.47;;;21.11;72.93
16544;BME280;8384;47.996;7.786;2023-09-12T06:32:46;98419.25;;;21.33;69.13
16544;BME280;8384;47.996;7.786;2023-09-12T06:35:12;98411.03;;;21.57;66.90
16544;BME280;8384;47.996;7.786;2023-09-12T06:37:38;98413.66;;;21.75;65.21
16544;BME280;8384;47.996;7.786;2023-09-12T06:40:05;98400.06;;;21.73;65.48
16544;BME280;8384;47.996;7.786;2023-09-12T06:42:31;98404.75;;;22.07;64.14
16544;BME280;8384;47.996;7.786;2023-09-12T06:44:56;98402.69;;;22.16;64.26
16544;BME280;8384;47.996;7.786;2023-09-12T06:47:21;98409.63;;;22.35;61.95
16544;BME280;8384;47.996;7.786;2023-09-12T06:49:47;98417.16;;;22.71;61.95
16544;BME280;8384;47.996;7.786;2023-09-12T06:52:12;98412.97;;;22.90;62.79
16544;BME280;8384;47.996;7.786;2023-09-12T06:54:38;98396.66;;;23.04;61.26
16544;BME280;8384;47.996;7.786;2023-09-12T06:57:03;98408.72;;;23.49;59.26
16544;BME280;8384;47.996;7.786;2023-09-12T06:59:29;98399.31;;;23.70;58.24
16544;BME280;8384;47.996;7.786;2023-09-12T07:01:54;98400.69;;;23.92;56.87
16544;BME280;8384;47.996;7.786;2023-09-12T07:04:19;98412.50;;;24.18;56.27
16544;BME280;8384;47.996;7.786;2023-09-12T07:06:45;98408.91;;;24.33;55.17
16544;BME280;8384;47.996;7.786;2023-09-12T07:09:10;98402.94;;;24.35;55.83
16544;BME280;8384;47.996;7.786;2023-09-12T07:11:39;98410.59;;;24.38;54.54
16544;BME280;8384;47.996;7.786;2023-09-12T07:14:04;98409.34;;;24.35;54.28
16544;BME280;8384;47.996;7.786;2023-09-12T07:16:31;98395.91;;;24.25;54.92
16544;BME280;8384;47.996;7.786;2023-09-12T07:18:56;98394.38;;;24.11;57.25
16544;BME280;8384;47.996;7.786;2023-09-12T07:21:22;98402.69;;;24.24;57.12
16544;BME280;8384;47.996;7.786;2023-09-12T07:23:48;98406.44;;;24.32;55.35
16544;BME280;8384;47.996;7.786;2023-09-12T07:26:14;98418.59;;;24.23;55.00
16544;BME280;8384;47.996;7.786;2023-09-12T07:28:39;98431.50;;;24.28;54.42
16544;BME280;8384;47.996;7.786;2023-09-12T07:31:05;98424.03;;;24.16;55.82
16544;BME280;8384;47.996;7.786;2023-09-12T07:33:30;98421.97;;;24.13;58.58
16544;BME280;8384;47.996;7.786;2023-09-12T07:35:56;98428.78;;;24.00;62.54
16544;BME280;8384;47.996;7.786;2023-09-12T07:38:24;98421.44;;;24.07;62.61
16544;BME280;8384;47.996;7.786;2023-09-12T07:40:49;98422.16;;;24.04;63.77
16544;BME280;8384;47.996;7.786;2023-09-12T07:43:14;98422.75;;;24.14;64.81
16544;BME280;8384;47.996;7.786;2023-09-12T07:45:40;98435.56;;;24.15;65.08
16544;BME280;8384;47.996;7.786;2023-09-12T07:48:06;98418.44;;;24.00;65.88
16544;BME280;8384;47.996;7.786;2023-09-12T07:50:32;98437.53;;;24.14;63.86
16544;BME280;8384;47.996;7.786;2023-09-12T07:52:57;98436.81;;;24.17;64.27
16544;BME280;8384;47.996;7.786;2023-09-12T07:55:22;98429.63;;;24.16;61.69
16544;BME280;8384;47.996;7.786;2023-09-12T07:57:48;98450.69;;;24.46;58.99
16544;BME280;8384;47.996;7.786;2023-09-12T08:00:13;98438.59;;;24.74;58.12
16544;BME280;8384;47.996;7.786;2023-09-12T08:02:38;98443.38;;;25.09;57.33
16544;BME280;8384;47.996;7.786;2023-09-12T08:05:05;98441.47;;;25.33;55.49
16544;BME280;8384;47.996;7.786;2023-09-12T08:07:31;98430.34;;;25.56;54.03
16544;BME280;8384;47.996;7.786;2023-09-12T08:09:57;98454.75;;;25.98;51.64
16544;BME280;8384;47.996;7.786;2023-09-12T08:12:25;98461.31;;;26.29;49.75
16544;BME280;8384;47.996;7.786;2023-09-12T08:14:52;98456.34;;;26.69;46.69
16544;BME280;8384;47.996;7.786;2023-09-12T08:17:17;98443.19;;;26.73;46.60
16544;BME280;8384;47.996;7.786;2023-09-12T08:19:43;98436.13;;;27.10;45.86
16544;BME280;8384;47.996;7.786;2023-09-12T08:22:09;98458.50;;;27.37;45.21
16544;BME280;8384;47.996;7.786;2023-09-12T08:24:36;98456.22;;;27.16;45.10
16544;BME280;8384;47.996;7.786;2023-09-12T08:27:02;98457.84;;;27.47;44.44
16544;BME280;8384;47.996;7.786;2023-09-12T08:29:31;98454.38;;;27.58;44.14
16544;BME280;8384;47.996;7.786;2023-09-12T08:31:57;98457.56;;;27.25;44.78
16544;BME280;8384;47.996;7.786;2023-09-12T08:34:22;98448.03;;;27.03;44.71
16544;BME280;8384;47.996;7.786;2023-09-12T08:36:47;98451.81;;;27.15;43.15
16544;BME280;8384;47.996;7.786;2023-09-12T08:39:15;98457.13;;;27.23;45.44
16544;BME280;8384;47.996;7.786;2023-09-12T08:41:41;98459.03;;;27.16;45.91
16544;BME280;8384;47.996;7.786;2023-09-12T08:44:07;98458.22;;;26.88;44.64
16544;BME280;8384;47.996;7.786;2023-09-12T08:46:32;98463.75;;;27.08;44.03
16544;BME280;8384;47.996;7.786;2023-09-12T08:48:58;98445.53;;;27.25;43.97
16544;BME280;8384;47.996;7.786;2023-09-12T08:51:23;98463.88;;;27.49;43.38
16544;BME280;8384;47.996;7.786;2023-09-12T08:53:49;98467.38;;;27.73;43.00
16544;BME280;8384;47.996;7.786;2023-09-12T08:56:15;98461.38;;;27.75;42.62
16544;BME280;8384;47.996;7.786;2023-09-12T08:58:40;98464.88;;;27.64;42.79
16544;BME280;8384;47.996;7.786;2023-09-12T09:01:06;98474.13;;;28.06;40.79
16544;BME280;8384;47.996;7.786;2023-09-12T09:03:33;98452.97;;;27.75;41.55
16544;BME280;8384;47.996;7.786;2023-09-12T09:05:59;98456.84;;;27.63;42.01
16544;BME280;8384;47.996;7.786;2023-09-12T09:08:26;98469.91;;;27.86;41.91
16544;BME280;8384;47.996;7.786;2023-09-12T09:10:57;98471.56;;;27.90;41.30
16544;BME280;8384;47.996;7.786;2023-09-12T09:13:24;98470.34;;;28.29;40.83
16544;BME280;8384;47.996;7.786;2023-09-12T09:15:49;98463.94;;;28.77;38.80
16544;BME280;8384;47.996;7.786;2023-09-12T09:18:14;98456.16;;;29.23;36.94
16544;BME280;8384;47.996;7.786;2023-09-12T09:20:40;98467.72;;;28.99;38.24
16544;BME280;8384;47.996;7.786;2023-09-12T09:23:07;98442.50;;;29.21;37.58
16544;BME280;8384;47.996;7.786;2023-09-12T09:25:36;98448.59;;;28.71;37.59
16544;BME280;8384;47.996;7.786;2023-09-12T09:28:05;98448.44;;;28.46;38.17
16544;BME280;8384;47.996;7.786;2023-09-12T09:30:40;98450.47;;;29.08;37.16
16544;BME280;8384;47.996;7.786;2023-09-12T09:33:06;98453.75;;;29.21;37.75
16544;BME280;8384;47.996;7.786;2023-09-12T09:35:31;98443.94;;;29.82;35.84
16544;BME280;8384;47.996;7.786;2023-09-12T09:37:56;98448.34;;;29.86;35.01
16544;BME280;8384;47.996;7.786;2023-09-12T09:40:22;98454.09;;;30.44;33.63
16544;BME280;8384;47.996;7.786;2023-09-12T09:42:53;98445.22;;;30.35;33.12
16544;BME280;8384;47.996;7.786;2023-09-12T09:45:18;98430.72;;;30.76;33.16
16544;BME280;8384;47.996;7.786;2023-09-12T09:47:44;98446.00;;;30.93;32.28
16544;BME280;8384;47.996;7.786;2023-09-12T09:50:14;98442.72;;;31.17;31.72
16544;BME280;8384;47.996;7.786;2023-09-12T09:52:39;98423.59;;;31.57;30.00
16544;BME280;8384;47.996;7.786;2023-09-12T09:55:06;98438.34;;;30.76;28.57
16544;BME280;8384;47.996;7.786;2023-09-12T09:57:37;98427.44;;;30.89;27.80
16544;BME280;8384;47.996;7.786;2023-09-12T10:00:02;98434.09;;;31.53;26.80
16544;BME280;8384;47.996;7.786;2023-09-12T10:02:35;98413.00;;;31.76;24.42
16544;BME280;8384;47.996;7.786;2023-09-12T10:05:04;98423.34;;;32.04;24.16
16544;BME280;8384;47.996;7.786;2023-09-12T10:07:32;98430.78;;;31.73;25.37
16544;BME280;8384;47.996;7.786;2023-09-12T10:10:02;98415.13;;;31.57;25.94
16544;BME280;8384;47.996;7.786;2023-09-12T10:12:28;98427.66;;;31.49;25.04
16544;BME280;8384;47.996;7.786;2023-09-12T10:14:58;98425.53;;;31.78;24.58
16544;BME280;8384;47.996;7.786;2023-09-12T10:17:27;98424.75;;;31.74;23.86
16544;BME280;8384;47.996;7.786;2023-09-12T10:19:56;98408.84;;;31.13;25.00
16544;BME280;8384;47.996;7.786;2023-09-12T10:22:39;98414.88;;;32.00;23.82
16544;BME280;8384;47.996;7.786;2023-09-12T10:25:07;98419.53;;;31.62;25.29
16544;BME280;8384;47.996;7.786;2023-09-12T10:27:33;98416.44;;;32.05;24.05
16544;BME280;8384;47.996;7.786;2023-09-12T10:29:58;98406.13;;;31.80;24.15
16544;BME280;8384;47.996;7.786;2023-09-12T10:32:25;98413.19;;;31.39;24.61
16544;BME280;8384;47.996;7.786;2023-09-12T10:34:53;98389.47;;;31.19;23.91
16544;BME280;8384;47.996;7.786;2023-09-12T10:37:22;98410.28;;;31.54;24.75
16544;BME280;8384;47.996;7.786;2023-09-12T10:39:48;98410.03;;;31.97;23.20
16544;BME280;8384;47.996;7.786;2023-09-12T10:42:16;98415.03;;;31.79;23.44
16544;BME280;8384;47.996;7.786;2023-09-12T10:44:43;98394.59;;;31.46;24.13
16544;BME280;8384;47.996;7.786;2023-09-12T10:47:09;98406.53;;;31.79;23.13
16544;BME280;8384;47.996;7.786;2023-09-12T10:49:35;98399.41;;;31.49;23.05
16544;BME280;8384;47.996;7.786;2023-09-12T10:52:02;98394.53;;;31.56;23.29
16544;BME280;8384;47.996;7.786;2023-09-12T10:54:39;98388.84;;;32.24;23.35
16544;BME280;8384;47.996;7.786;2023-09-12T10:57:05;98393.25;;;31.76;23.80
16544;BME280;8384;47.996;7.786;2023-09-12T10:59:31;98397.63;;;31.84;24.03
16544;BME280;8384;47.996;7.786;2023-09-12T11:02:28;98389.44;;;31.33;24.15
16544;BME280;8384;47.996;7.786;2023-09-12T11:04:58;98387.31;;;31.52;24.48
16544;BME280;8384;47.996;7.786;2023-09-12T11:12:41;98382.56;;;32.01;24.43
16544;BME280;8384;47.996;7.786;2023-09-12T11:15:08;98391.78;;;32.09;23.48
16544;BME280;8384;47.996;7.786;2023-09-12T11:17:40;98386.81;;;32.70;23.11
16544;BME280;8384;47.996;7.786;2023-09-12T11:20:07;98394.72;;;32.89;22.43
16544;BME280;8384;47.996;7.786;2023-09-12T11:22:38;98355.66;;;31.82;23.18
16544;BME280;8384;47.996;7.786;2023-09-12T11:25:22;98381.78;;;32.01;23.37
16544;BME280;8384;47.996;7.786;2023-09-12T11:30:26;98387.38;;;32.05;23.19
16544;BME280;8384;47.996;7.786;2023-09-12T11:32:56;98387.91;;;32.41;23.77
16544;BME280;8384;47.996;7.786;2023-09-12T11:35:23;98389.00;;;32.55;23.76
16544;BME280;8384;47.996;7.786;2023-09-12T11:37:50;98399.94;;;32.49;23.02
16544;BME280;8384;47.996;7.786;2023-09-12T11:42:57;98390.66;;;32.49;23.29
16544;BME280;8384;47.996;7.786;2023-09-12T11:45:22;98370.91;;;31.92;24.16
16544;BME280;8384;47.996;7.786;2023-09-12T11:47:48;98387.94;;;31.81;24.26
16544;BME280;8384;47.996;7.786;2023-09-12T11:50:30;98389.16;;;31.84;24.04
16544;BME280;8384;47.996;7.786;2023-09-12T11:53:03;98384.50;;;32.08;23.75
16544;BME280;8384;47.996;7.786;2023-09-12T11:55:50;98375.06;;;32.71;23.30
16544;BME280;8384;47.996;7.786;2023-09-12T11:58:19;98369.06;;;33.35;23.01
16544;BME280;8384;47.996;7.786;2023-09-12T12:00:52;98382.50;;;32.09;23.96
16544;BME280;8384;47.996;7.786;2023-09-12T12:03:20;98380.19;;;32.45;23.62
16544;BME280;8384;47.996;7.786;2023-09-12T12:05:46;98376.16;;;32.85;23.87
16544;BME280;8384;47.996;7.786;2023-09-12T12:08:12;98377.31;;;33.22;22.49
16544;BME280;8384;47.996;7.786;2023-09-12T12:10:38;98367.59;;;33.23;23.27
16544;BME280;8384;47.996;7.786;2023-09-12T12:13:05;98345.00;;;33.50;22.90
16544;BME280;8384;47.996;7.786;2023-09-12T12:15:31;98370.88;;;32.87;24.12
16544;BME280;8384;47.996;7.786;2023-09-12T12:17:57;98353.69;;;33.05;23.89
16544;BME280;8384;47.996;7.786;2023-09-12T12:20:22;98356.91;;;32.30;24.42
16544;BME280;8384;47.996;7.786;2023-09-12T12:22:48;98385.72;;;32.98;23.76
16544;BME280;8384;47.996;7.786;2023-09-12T12:25:14;98344.41;;;32.28;24.79
16544;BME280;8384;47.996;7.786;2023-09-12T12:27:41;98357.00;;;32.58;24.30
16544;BME280;8384;47.996;7.786;2023-09-12T12:30:09;98372.72;;;32.21;25.23
16544;BME280;8384;47.996;7.786;2023-09-12T12:32:42;98366.00;;;33.22;25.01
16544;BME280;8384;47.996;7.786;2023-09-12T12:35:09;98363.72;;;33.72;23.40
16544;BME280;8384;47.996;7.786;2023-09-12T12:37:36;98357.09;;;33.82;22.88
16544;BME280;8384;47.996;7.786;2023-09-12T12:40:02;98346.75;;;33.41;23.36
16544;BME280;8384;47.996;7.786;2023-09-12T12:42:35;98350.13;;;32.97;23.77
16544;BME280;8384;47.996;7.786;2023-09-12T12:45:01;98358.88;;;33.10;24.77
16544;BME280;8384;47.996;7.786;2023-09-12T12:47:27;98358.94;;;33.07;23.18
16544;BME280;8384;47.996;7.786;2023-09-12T12:49:54;98340.75;;;33.35;23.57
16544;BME280;8384;47.996;7.786;2023-09-12T12:52:25;98339.28;;;33.23;24.33
16544;BME280;8384;47.996;7.786;2023-09-12T12:54:51;98323.47;;;33.26;24.30
16544;BME280;8384;47.996;7.786;2023-09-12T12:57:20;98337.28;;;33.24;23.95
16544;BME280;8384;47.996;7.786;2023-09-12T12:59:48;98341.69;;;32.94;24.65
16544;BME280;8384;47.996;7.786;2023-09-12T13:02:13;98332.84;;;33.23;24.32
16544;BME280;8384;47.996;7.786;2023-09-12T13:04:38;98321.00;;;33.59;23.49
16544;BME280;8384;47.996;7.786;2023-09-12T13:07:04;98321.81;;;33.59;23.48
16544;BME280;8384;47.996;7.786;2023-09-12T13:09:30;98322.44;;;33.98;23.26
16544;BME280;8384;47.996;7.786;2023-09-12T13:11:55;98320.38;;;34.46;21.78
16544;BME280;8384;47.996;7.786;2023-09-12T13:14:20;98297.00;;;33.67;22.52
16544;BME280;8384;47.996;7.786;2023-09-12T13:16:45;98288.31;;;33.50;22.20
16544;BME280;8384;47.996;7.786;2023-09-12T13:19:11;98273.72;;;34.27;19.92
16544;BME280;8384;47.996;7.786;2023-09-12T13:21:37;98315.72;;;34.32;20.47